sensor_id;sensor_type;location;lat;lon;timestamp;pressure;altitude;pressure_sealevel;temperature;humidity
64739;BME280;51175;51.186;0.276;2022-10-17T00:00:10;100658.16;;;17.56;70.13
64739;BME280;51175;51.186;0.276;2022-10-17T00:00:41;100650.13;;;17.56;70.42
64739;BME280;51175;51.186;0.276;2022-10-17T00:01:12;100643.72;;;17.57;70.30
64739;BME280;51175;51.186;0.276;2022-10-17T00:01:42;100649.06;;;17.57;70.25
64739;BME280;51175;51.186;0.276;2022-10-17T00:02:13;100651.75;;;17.57;70.24
64739;BME280;51175;51.186;0.276;2022-10-17T00:02:43;100651.75;;;17.57;70.18
64739;BME280;51175;51.186;0.276;2022-10-17T00:03:14;100641.81;;;17.58;70.30
64739;BME280;51175;51.186;0.276;2022-10-17T00:03:44;100643.72;;;17.57;70.12
64739;BME280;51175;51.186;0.276;2022-10-17T00:04:14;100641.06;;;17.57;70.01
64739;BME280;51175;51.186;0.276;2022-10-17T00:04:45;100631.16;;;17.58;70.13
64739;BME280;51175;51.186;0.276;2022-10-17T00:05:15;100636.47;;;17.58;70.22
64739;BME280;51175;51.186;0.276;2022-10-17T00:05:47;100639.16;;;17.58;70.26
64739;BME280;51175;51.186;0.276;2022-10-17T00:06:17;100632.75;;;17.59;70.46
64739;BME280;51175;51.186;0.276;2022-10-17T00:06:48;100632.75;;;17.59;70.31
64739;BME280;51175;51.186;0.276;2022-10-17T00:07:18;100629.28;;;17.58;70.10
64739;BME280;51175;51.186;0.276;2022-10-17T00:07:49;100631.94;;;17.58;70.12
64739;BME280;51175;51.186;0.276;2022-10-17T00:08:19;100631.16;;;17.58;70.49
64739;BME280;51175;51.186;0.276;2022-10-17T00:08:50;100615.91;;;17.58;70.18
64739;BME280;51175;51.186;0.276;2022-10-17T00:09:20;100621.25;;;17.58;70.28
64739;BME280;51175;51.186;0.276;2022-10-17T00:09:50;100620.47;;;17.58;70.19
64739;BME280;51175;51.186;0.276;2022-10-17T00:10:21;100621.25;;;17.58;70.15
64739;BME280;51175;51.186;0.276;2022-10-17T00:11:07;100622.06;;;17.59;69.98
64739;BME280;51175;51.186;0.276;2022-10-17T00:11:38;100618.59;;;17.58;70.16
64739;BME280;51175;51.186;0.276;2022-10-17T00:12:08;100629.28;;;17.58;70.19
64739;BME280;51175;51.186;0.276;2022-10-17T00:12:39;100629.28;;;17.58;70.16
64739;BME280;51175;51.186;0.276;2022-10-17T00:13:10;100626.59;;;17.58;70.07
64739;BME280;51175;51.186;0.276;2022-10-17T00:13:41;100629.28;;;17.58;70.42
64739;BME280;51175;51.186;0.276;2022-10-17T00:14:11;100627.72;;;17.57;70.03
64739;BME280;51175;51.186;0.276;2022-10-17T00:14:41;100631.94;;;17.58;70.27
64739;BME280;51175;51.186;0.276;2022-10-17T00:15:17;100632.75;;;17.59;69.96
64739;BME280;51175;51.186;0.276;2022-10-17T00:15:48;100641.81;;;17.58;69.71
64739;BME280;51175;51.186;0.276;2022-10-17T00:16:33;100631.16;;;17.58;69.78
64739;BME280;51175;51.186;0.276;2022-10-17T00:17:05;100637.28;;;17.58;69.81
64739;BME280;51175;51.186;0.276;2022-10-17T00:17:36;100642.63;;;17.58;69.78
64739;BME280;51175;51.186;0.276;2022-10-17T00:18:07;100646.41;;;17.57;69.79
64739;BME280;51175;51.186;0.276;2022-10-17T00:18:37;100647.97;;;17.58;70.28
64739;BME280;51175;51.186;0.276;2022-10-17T00:19:08;100658.66;;;17.58;70.46
64739;BME280;51175;51.186;0.276;2022-10-17T00:19:38;100664.78;;;17.59;70.19
64739;BME280;51175;51.186;0.276;2022-10-17T00:20:09;100659.75;;;17.57;70.28
64739;BME280;51175;51.186;0.276;2022-10-17T00:20:39;100661.31;;;17.58;70.31
64739;BME280;51175;51.186;0.276;2022-10-17T00:21:17;100670.91;;;17.59;70.13
64739;BME280;51175;51.186;0.276;2022-10-17T00:21:48;100664.78;;;17.59;70.08
64739;BME280;51175;51.186;0.276;2022-10-17T00:22:18;100666.66;;;17.58;70.08
64739;BME280;51175;51.186;0.276;2022-10-17T00:22:49;100675.47;;;17.59;69.76
64739;BME280;51175;51.186;0.276;2022-10-17T00:23:19;100667.75;;;17.57;70.10
64739;BME280;51175;51.186;0.276;2022-10-17T00:23:50;100673.88;;;17.58;70.21
64739;BME280;51175;51.186;0.276;2022-10-17T00:24:21;100674.38;;;17.60;70.13
64739;BME280;51175;51.186;0.276;2022-10-17T00:24:51;100677.34;;;17.58;70.20
64739;BME280;51175;51.186;0.276;2022-10-17T00:25:22;100678.13;;;17.59;70.33
64739;BME280;51175;51.186;0.276;2022-10-17T00:26:00;100677.84;;;17.60;70.16
64739;BME280;51175;51.186;0.276;2022-10-17T00:26:31;100677.84;;;17.60;69.89
64739;BME280;51175;51.186;0.276;2022-10-17T00:27:01;100665.56;;;17.59;69.80
64739;BME280;51175;51.186;0.276;2022-10-17T00:27:38;100674.38;;;17.60;70.15
64739;BME280;51175;51.186;0.276;2022-10-17T00:28:11;100677.03;;;17.60;70.06
64739;BME280;51175;51.186;0.276;2022-10-17T00:28:45;100666.34;;;17.60;69.90
64739;BME280;51175;51.186;0.276;2022-10-17T00:29:16;100661.81;;;17.60;69.67
64739;BME280;51175;51.186;0.276;2022-10-17T00:29:48;100661.81;;;17.60;69.97
64739;BME280;51175;51.186;0.276;2022-10-17T00:30:19;100673.25;;;17.61;69.90
64739;BME280;51175;51.186;0.276;2022-10-17T00:31:01;100675.16;;;17.60;70.14
64739;BME280;51175;51.186;0.276;2022-10-17T00:31:32;100676.25;;;17.59;70.37
64739;BME280;51175;51.186;0.276;2022-10-17T00:32:02;100672.78;;;17.59;70.25
64739;BME280;51175;51.186;0.276;2022-10-17T00:32:33;100673.56;;;17.59;70.15
64739;BME280;51175;51.186;0.276;2022-10-17T00:33:03;100668.72;;;17.61;70.07
64739;BME280;51175;51.186;0.276;2022-10-17T00:33:34;100664.47;;;17.60;70.17
64739;BME280;51175;51.186;0.276;2022-10-17T00:34:05;100669.81;;;17.60;70.36
64739;BME280;51175;51.186;0.276;2022-10-17T00:34:35;100669.03;;;17.60;70.14
64739;BME280;51175;51.186;0.276;2022-10-17T00:35:06;100672.50;;;17.60;69.84
64739;BME280;51175;51.186;0.276;2022-10-17T00:35:37;100670.59;;;17.61;69.94
64739;BME280;51175;51.186;0.276;2022-10-17T00:36:41;100669.81;;;17.60;70.17
64739;BME280;51175;51.186;0.276;2022-10-17T00:37:12;100675.16;;;17.60;70.19
64739;BME280;51175;51.186;0.276;2022-10-17T00:37:42;100677.84;;;17.60;69.96
64739;BME280;51175;51.186;0.276;2022-10-17T00:38:12;100673.25;;;17.61;70.16
64739;BME280;51175;51.186;0.276;2022-10-17T00:38:44;100677.53;;;17.62;69.97
64739;BME280;51175;51.186;0.276;2022-10-17T00:39:15;100672.50;;;17.60;69.89
64739;BME280;51175;51.186;0.276;2022-10-17T00:39:45;100675.94;;;17.61;69.76
64739;BME280;51175;51.186;0.276;2022-10-17T00:40:16;100671.38;;;17.61;70.05
64739;BME280;51175;51.186;0.276;2022-10-17T00:40:46;100668.72;;;17.61;70.06
64739;BME280;51175;51.186;0.276;2022-10-17T00:41:18;100668.72;;;17.61;69.76
64739;BME280;51175;51.186;0.276;2022-10-17T00:41:49;100667.91;;;17.61;70.07
64739;BME280;51175;51.186;0.276;2022-10-17T00:42:20;100676.72;;;17.61;70.02
64739;BME280;51175;51.186;0.276;2022-10-17T00:42:51;100674.84;;;17.62;70.38
64739;BME280;51175;51.186;0.276;2022-10-17T00:43:22;100680.19;;;17.62;70.07
64739;BME280;51175;51.186;0.276;2022-10-17T00:43:59;100678.31;;;17.62;70.30
64739;BME280;51175;51.186;0.276;2022-10-17T00:45:33;100689.78;;;17.63;70.19
64739;BME280;51175;51.186;0.276;2022-10-17T00:46:04;100691.66;;;17.62;69.91
64739;BME280;51175;51.186;0.276;2022-10-17T00:46:36;100687.91;;;17.64;70.34
64739;BME280;51175;51.186;0.276;2022-10-17T00:47:16;100690.59;;;17.64;70.35
64739;BME280;51175;51.186;0.276;2022-10-17T00:48:08;100690.59;;;17.64;70.04
64739;BME280;51175;51.186;0.276;2022-10-17T00:48:40;100695.13;;;17.63;70.16
64739;BME280;51175;51.186;0.276;2022-10-17T00:49:11;100695.13;;;17.63;69.71
64739;BME280;51175;51.186;0.276;2022-10-17T00:49:41;100690.88;;;17.62;70.01
64739;BME280;51175;51.186;0.276;2022-10-17T00:50:12;100692.75;;;17.61;69.87
64739;BME280;51175;51.186;0.276;2022-10-17T00:50:45;100688.22;;;17.62;70.14
64739;BME280;51175;51.186;0.276;2022-10-17T00:51:20;100692.75;;;17.61;70.27
64739;BME280;51175;51.186;0.276;2022-10-17T00:51:56;100696.22;;;17.62;70.17
64739;BME280;51175;51.186;0.276;2022-10-17T00:52:29;100688.22;;;17.62;70.19
64739;BME280;51175;51.186;0.276;2022-10-17T00:53:01;100697.00;;;17.62;70.08
64739;BME280;51175;51.186;0.276;2022-10-17T00:53:34;100696.22;;;17.62;70.00
64739;BME280;51175;51.186;0.276;2022-10-17T00:54:07;100694.31;;;17.62;70.01
64739;BME280;51175;51.186;0.276;2022-10-17T00:54:42;100702.34;;;17.62;69.96
64739;BME280;51175;51.186;0.276;2022-10-17T00:55:19;100696.22;;;17.62;70.34
64739;BME280;51175;51.186;0.276;2022-10-17T00:55:51;100693.56;;;17.62;70.29
64739;BME280;51175;51.186;0.276;2022-10-17T00:56:22;100696.22;;;17.62;70.06
64739;BME280;51175;51.186;0.276;2022-10-17T00:56:53;100697.78;;;17.63;70.06
64739;BME280;51175;51.186;0.276;2022-10-17T00:57:24;100696.22;;;17.62;70.36
64739;BME280;51175;51.186;0.276;2022-10-17T00:57:59;100692.75;;;17.61;70.34
64739;BME280;51175;51.186;0.276;2022-10-17T00:58:31;100694.31;;;17.62;70.13
64739;BME280;51175;51.186;0.276;2022-10-17T00:59:02;100695.13;;;17.63;70.29
64739;BME280;51175;51.186;0.276;2022-10-17T00:59:33;100697.00;;;17.62;70.07
64739;BME280;51175;51.186;0.276;2022-10-17T01:00:07;100700.47;;;17.63;70.43
64739;BME280;51175;51.186;0.276;2022-10-17T01:00:40;100700.47;;;17.63;70.58
64739;BME280;51175;51.186;0.276;2022-10-17T01:01:10;100704.69;;;17.64;70.35
64739;BME280;51175;51.186;0.276;2022-10-17T01:01:42;100697.00;;;17.62;70.46
64739;BME280;51175;51.186;0.276;2022-10-17T01:02:17;100706.59;;;17.64;70.42
64739;BME280;51175;51.186;0.276;2022-10-17T01:02:48;100703.94;;;17.64;70.05
64739;BME280;51175;51.186;0.276;2022-10-17T01:03:19;100713.81;;;17.63;70.41
64739;BME280;51175;51.186;0.276;2022-10-17T01:03:49;100708.47;;;17.63;69.99
64739;BME280;51175;51.186;0.276;2022-10-17T01:04:20;100706.59;;;17.64;69.92
64739;BME280;51175;51.186;0.276;2022-10-17T01:04:51;100709.28;;;17.64;69.98
64739;BME280;51175;51.186;0.276;2022-10-17T01:05:24;100718.06;;;17.64;70.16
64739;BME280;51175;51.186;0.276;2022-10-17T01:05:55;100715.38;;;17.64;70.35
64739;BME280;51175;51.186;0.276;2022-10-17T01:06:26;100713.50;;;17.65;70.51
64739;BME280;51175;51.186;0.276;2022-10-17T01:06:57;100712.72;;;17.64;70.14
64739;BME280;51175;51.186;0.276;2022-10-17T01:07:28;100716.97;;;17.65;70.41
64739;BME280;51175;51.186;0.276;2022-10-17T01:07:58;100715.38;;;17.64;70.24
64739;BME280;51175;51.186;0.276;2022-10-17T01:08:29;100716.97;;;17.65;70.31
64739;BME280;51175;51.186;0.276;2022-10-17T01:09:00;100715.09;;;17.66;70.18
64739;BME280;51175;51.186;0.276;2022-10-17T01:09:31;100714.31;;;17.65;70.21
64739;BME280;51175;51.186;0.276;2022-10-17T01:10:02;100710.84;;;17.65;70.23
64739;BME280;51175;51.186;0.276;2022-10-17T01:10:58;100718.56;;;17.66;70.00
64739;BME280;51175;51.186;0.276;2022-10-17T01:13:29;100714.63;;;17.64;70.02
64739;BME280;51175;51.186;0.276;2022-10-17T01:14:10;100718.84;;;17.65;70.41
64739;BME280;51175;51.186;0.276;2022-10-17T01:16:45;100725.28;;;17.64;70.53
64739;BME280;51175;51.186;0.276;2022-10-17T01:17:42;100717.59;;;17.62;70.67
64739;BME280;51175;51.186;0.276;2022-10-17T01:18:31;100720.56;;;17.60;70.73
64739;BME280;51175;51.186;0.276;2022-10-17T01:22:27;100705.91;;;17.58;70.18
64739;BME280;51175;51.186;0.276;2022-10-17T01:26:18;100719.09;;;17.54;70.42
64739;BME280;51175;51.186;0.276;2022-10-17T01:31:33;100719.69;;;17.51;70.58
64739;BME280;51175;51.186;0.276;2022-10-17T01:32:14;100718.91;;;17.50;70.99
64739;BME280;51175;51.186;0.276;2022-10-17T01:32:48;100724.25;;;17.50;70.96
64739;BME280;51175;51.186;0.276;2022-10-17T01:35:05;100728.47;;;17.52;70.46
64739;BME280;51175;51.186;0.276;2022-10-17T01:35:42;100723.94;;;17.52;70.57
64739;BME280;51175;51.186;0.276;2022-10-17T01:38:19;100719.41;;;17.53;70.71
64739;BME280;51175;51.186;0.276;2022-10-17T01:39:03;100711.38;;;17.53;70.79
64739;BME280;51175;51.186;0.276;2022-10-17T01:40:35;100713.25;;;17.52;70.99
64739;BME280;51175;51.186;0.276;2022-10-17T01:41:31;100710.59;;;17.52;70.83
64739;BME280;51175;51.186;0.276;2022-10-17T01:43:07;100725.03;;;17.51;70.83
64739;BME280;51175;51.186;0.276;2022-10-17T01:44:02;100731.16;;;17.52;71.01
64739;BME280;51175;51.186;0.276;2022-10-17T01:45:05;100745.31;;;17.52;70.61
64739;BME280;51175;51.186;0.276;2022-10-17T01:45:44;100746.41;;;17.51;70.78
64739;BME280;51175;51.186;0.276;2022-10-17T01:46:28;100742.63;;;17.52;70.79
64739;BME280;51175;51.186;0.276;2022-10-17T01:47:04;100740.25;;;17.50;70.65
64739;BME280;51175;51.186;0.276;2022-10-17T01:47:37;100747.16;;;17.52;70.98
64739;BME280;51175;51.186;0.276;2022-10-17T01:48:18;100753.31;;;17.52;70.59
64739;BME280;51175;51.186;0.276;2022-10-17T01:48:51;100757.84;;;17.52;70.86
64739;BME280;51175;51.186;0.276;2022-10-17T01:49:25;100758.66;;;17.52;71.03
64739;BME280;51175;51.186;0.276;2022-10-17T01:50:03;100754.09;;;17.53;70.81
64739;BME280;51175;51.186;0.276;2022-10-17T01:50:40;100760.22;;;17.53;70.39
64739;BME280;51175;51.186;0.276;2022-10-17T01:51:20;100759.91;;;17.55;70.59
64739;BME280;51175;51.186;0.276;2022-10-17T01:51:56;100756.47;;;17.54;70.34
64739;BME280;51175;51.186;0.276;2022-10-17T01:52:46;100758.06;;;17.55;70.57
64739;BME280;51175;51.186;0.276;2022-10-17T01:53:25;100759.16;;;17.54;70.93
64739;BME280;51175;51.186;0.276;2022-10-17T01:54:01;100763.38;;;17.55;70.57
64739;BME280;51175;51.186;0.276;2022-10-17T01:55:24;100752.72;;;17.55;70.53
64739;BME280;51175;51.186;0.276;2022-10-17T01:55:32;100758.06;;;17.55;70.71
64739;BME280;51175;51.186;0.276;2022-10-17T01:56:06;100756.19;;;17.56;70.80
64739;BME280;51175;51.186;0.276;2022-10-17T01:56:39;100755.38;;;17.55;70.61
64739;BME280;51175;51.186;0.276;2022-10-17T01:57:16;100754.28;;;17.56;70.78
64739;BME280;51175;51.186;0.276;2022-10-17T01:57:57;100752.41;;;17.57;70.96
64739;BME280;51175;51.186;0.276;2022-10-17T01:58:36;100751.31;;;17.58;70.68
64739;BME280;51175;51.186;0.276;2022-10-17T01:59:15;100756.66;;;17.58;70.88
64739;BME280;51175;51.186;0.276;2022-10-17T01:59:50;100755.06;;;17.57;70.61
64739;BME280;51175;51.186;0.276;2022-10-17T02:00:24;100759.31;;;17.58;70.32
64739;BME280;51175;51.186;0.276;2022-10-17T02:00:58;100758.56;;;17.57;70.67
64739;BME280;51175;51.186;0.276;2022-10-17T02:01:31;100757.44;;;17.58;70.42
64739;BME280;51175;51.186;0.276;2022-10-17T02:02:01;100765.47;;;17.58;70.40
64739;BME280;51175;51.186;0.276;2022-10-17T02:02:32;100761.69;;;17.59;70.59
64739;BME280;51175;51.186;0.276;2022-10-17T02:03:06;100763.59;;;17.59;70.57
64739;BME280;51175;51.186;0.276;2022-10-17T02:03:41;100765.16;;;17.60;70.27
64739;BME280;51175;51.186;0.276;2022-10-17T02:04:13;100764.06;;;17.61;70.21
64739;BME280;51175;51.186;0.276;2022-10-17T02:04:43;100760.63;;;17.60;70.69
64739;BME280;51175;51.186;0.276;2022-10-17T02:05:17;100758.72;;;17.61;70.74
64739;BME280;51175;51.186;0.276;2022-10-17T02:05:49;100763.00;;;17.62;70.53
64739;BME280;51175;51.186;0.276;2022-10-17T02:06:19;100762.19;;;17.61;70.32
64739;BME280;51175;51.186;0.276;2022-10-17T02:06:50;100761.09;;;17.62;70.52
64739;BME280;51175;51.186;0.276;2022-10-17T02:07:20;100761.09;;;17.62;70.32
64739;BME280;51175;51.186;0.276;2022-10-17T02:07:50;100760.00;;;17.64;70.27
64739;BME280;51175;51.186;0.276;2022-10-17T02:08:40;100762.69;;;17.64;70.20
64739;BME280;51175;51.186;0.276;2022-10-17T02:09:28;100753.56;;;17.65;70.19
64739;BME280;51175;51.186;0.276;2022-10-17T02:09:59;100752.78;;;17.64;70.22
64739;BME280;51175;51.186;0.276;2022-10-17T02:10:41;100765.06;;;17.65;70.17
64739;BME280;51175;51.186;0.276;2022-10-17T02:11:16;100763.16;;;17.66;70.28
64739;BME280;51175;51.186;0.276;2022-10-17T02:13:11;100765.81;;;17.66;70.46
64739;BME280;51175;51.186;0.276;2022-10-17T02:15:52;100759.22;;;17.63;70.39
64739;BME280;51175;51.186;0.276;2022-10-17T02:16:36;100754.19;;;17.61;70.13
64739;BME280;51175;51.186;0.276;2022-10-17T02:18:27;100749.94;;;17.60;70.27
64739;BME280;51175;51.186;0.276;2022-10-17T02:20:21;100747.25;;;17.60;70.10
64739;BME280;51175;51.186;0.276;2022-10-17T02:21:32;100767.34;;;17.58;70.58
64739;BME280;51175;51.186;0.276;2022-10-17T02:22:20;100770.00;;;17.58;70.34
64739;BME280;51175;51.186;0.276;2022-10-17T02:23:30;100762.00;;;17.58;70.42
64739;BME280;51175;51.186;0.276;2022-10-17T02:25:13;100760.41;;;17.57;70.72
64739;BME280;51175;51.186;0.276;2022-10-17T02:25:55;100752.41;;;17.57;70.46
64739;BME280;51175;51.186;0.276;2022-10-17T02:26:32;100756.94;;;17.56;70.84
64739;BME280;51175;51.186;0.276;2022-10-17T02:27:56;100752.72;;;17.55;70.57
64739;BME280;51175;51.186;0.276;2022-10-17T02:28:39;100759.63;;;17.56;70.70
64739;BME280;51175;51.186;0.276;2022-10-17T02:29:18;100772.97;;;17.56;70.89
64739;BME280;51175;51.186;0.276;2022-10-17T02:30:02;100776.44;;;17.57;70.76
64739;BME280;51175;51.186;0.276;2022-10-17T02:30:57;100768.44;;;17.57;70.39
64739;BME280;51175;51.186;0.276;2022-10-17T02:31:44;100771.09;;;17.57;70.52
64739;BME280;51175;51.186;0.276;2022-10-17T02:32:23;100767.63;;;17.56;70.37
64739;BME280;51175;51.186;0.276;2022-10-17T02:33:01;100771.09;;;17.57;70.75
64739;BME280;51175;51.186;0.276;2022-10-17T02:33:50;100773.78;;;17.57;70.48
64739;BME280;51175;51.186;0.276;2022-10-17T02:34:26;100780.22;;;17.56;70.35
64739;BME280;51175;51.186;0.276;2022-10-17T02:35:00;100781.78;;;17.57;70.53
64739;BME280;51175;51.186;0.276;2022-10-17T02:35:35;100778.31;;;17.56;70.52
64739;BME280;51175;51.186;0.276;2022-10-17T02:36:14;100777.25;;;17.57;70.90
64739;BME280;51175;51.186;0.276;2022-10-17T02:36:52;100781.78;;;17.57;70.72
64739;BME280;51175;51.186;0.276;2022-10-17T02:37:26;100781.78;;;17.57;70.71
64739;BME280;51175;51.186;0.276;2022-10-17T02:37:58;100781.78;;;17.57;70.61
64739;BME280;51175;51.186;0.276;2022-10-17T02:38:30;100789.50;;;17.58;70.33
64739;BME280;51175;51.186;0.276;2022-10-17T02:39:03;100778.81;;;17.58;70.52
64739;BME280;51175;51.186;0.276;2022-10-17T02:39:35;100787.63;;;17.59;70.16
64739;BME280;51175;51.186;0.276;2022-10-17T02:40:07;100790.28;;;17.59;70.47
64739;BME280;51175;51.186;0.276;2022-10-17T02:40:39;100784.16;;;17.58;70.58
64739;BME280;51175;51.186;0.276;2022-10-17T02:41:15;100785.44;;;17.61;70.35
64739;BME280;51175;51.186;0.276;2022-10-17T02:41:47;100790.75;;;17.61;70.41
64739;BME280;51175;51.186;0.276;2022-10-17T02:42:19;100785.44;;;17.61;70.65
64739;BME280;51175;51.186;0.276;2022-10-17T02:42:52;100787.78;;;17.62;70.55
64739;BME280;51175;51.186;0.276;2022-10-17T02:43:24;100791.25;;;17.63;70.40
64739;BME280;51175;51.186;0.276;2022-10-17T02:43:54;100794.72;;;17.64;70.34
64739;BME280;51175;51.186;0.276;2022-10-17T02:44:25;100785.13;;;17.62;70.37
64739;BME280;51175;51.186;0.276;2022-10-17T02:44:59;100782.16;;;17.64;70.29
64739;BME280;51175;51.186;0.276;2022-10-17T02:45:31;100784.81;;;17.64;70.58
64739;BME280;51175;51.186;0.276;2022-10-17T02:46:05;100782.94;;;17.65;70.67
64739;BME280;51175;51.186;0.276;2022-10-17T02:46:39;100783.75;;;17.65;70.23
64739;BME280;51175;51.186;0.276;2022-10-17T02:47:20;100782.66;;;17.66;70.47
64739;BME280;51175;51.186;0.276;2022-10-17T02:48:21;100771.66;;;17.68;70.34
64739;BME280;51175;51.186;0.276;2022-10-17T02:49:00;100773.84;;;17.66;70.29
64739;BME280;51175;51.186;0.276;2022-10-17T02:49:35;100773.84;;;17.66;70.61
64739;BME280;51175;51.186;0.276;2022-10-17T02:50:08;100766.94;;;17.65;70.28
64739;BME280;51175;51.186;0.276;2022-10-17T02:51:41;100781.84;;;17.66;70.40
64739;BME280;51175;51.186;0.276;2022-10-17T02:52:57;100778.41;;;17.65;70.53
64739;BME280;51175;51.186;0.276;2022-10-17T02:54:52;100794.44;;;17.65;70.42
64739;BME280;51175;51.186;0.276;2022-10-17T02:55:29;100789.88;;;17.66;70.40
64739;BME280;51175;51.186;0.276;2022-10-17T02:56:05;100789.09;;;17.65;70.42
64739;BME280;51175;51.186;0.276;2022-10-17T02:56:47;100792.53;;;17.66;70.06
64739;BME280;51175;51.186;0.276;2022-10-17T02:57:23;100781.84;;;17.66;70.29
64739;BME280;51175;51.186;0.276;2022-10-17T02:57:59;100777.59;;;17.65;70.13
64739;BME280;51175;51.186;0.276;2022-10-17T02:58:33;100780.28;;;17.65;70.22
64739;BME280;51175;51.186;0.276;2022-10-17T02:59:06;100782.94;;;17.65;69.98
64739;BME280;51175;51.186;0.276;2022-10-17T02:59:39;100788.28;;;17.65;69.83
64739;BME280;51175;51.186;0.276;2022-10-17T03:00:12;100793.34;;;17.66;70.31
64739;BME280;51175;51.186;0.276;2022-10-17T03:00:43;100792.53;;;17.66;70.31
64739;BME280;51175;51.186;0.276;2022-10-17T03:01:15;100795.19;;;17.66;70.40
64739;BME280;51175;51.186;0.276;2022-10-17T03:01:45;100795.19;;;17.66;70.42
64739;BME280;51175;51.186;0.276;2022-10-17T03:02:16;100798.69;;;17.66;70.36
64739;BME280;51175;51.186;0.276;2022-10-17T03:02:51;100797.59;;;17.67;70.57
64739;BME280;51175;51.186;0.276;2022-10-17T03:03:24;100799.47;;;17.67;70.53
64739;BME280;51175;51.186;0.276;2022-10-17T03:04:12;100801.03;;;17.68;70.12
64739;BME280;51175;51.186;0.276;2022-10-17T03:04:45;100802.94;;;17.67;70.09
64739;BME280;51175;51.186;0.276;2022-10-17T03:05:27;100803.72;;;17.68;70.19
64739;BME280;51175;51.186;0.276;2022-10-17T03:05:57;100801.03;;;17.68;70.41
64739;BME280;51175;51.186;0.276;2022-10-17T03:06:27;100803.72;;;17.68;70.21
64739;BME280;51175;51.186;0.276;2022-10-17T03:06:58;100795.69;;;17.68;70.05
64739;BME280;51175;51.186;0.276;2022-10-17T03:07:28;100791.97;;;17.69;70.23
64739;BME280;51175;51.186;0.276;2022-10-17T03:07:59;100787.69;;;17.68;70.32
64739;BME280;51175;51.186;0.276;2022-10-17T03:08:29;100785.81;;;17.68;70.52
64739;BME280;51175;51.186;0.276;2022-10-17T03:09:00;100784.25;;;17.67;70.00
64739;BME280;51175;51.186;0.276;2022-10-17T03:09:30;100776.72;;;17.69;70.51
64739;BME280;51175;51.186;0.276;2022-10-17T03:10:01;100769.78;;;17.68;70.33
64739;BME280;51175;51.186;0.276;2022-10-17T03:10:31;100767.13;;;17.68;70.15
64739;BME280;51175;51.186;0.276;2022-10-17T03:11:02;100762.59;;;17.69;70.47
64739;BME280;51175;51.186;0.276;2022-10-17T03:11:33;100760.69;;;17.69;70.25
64739;BME280;51175;51.186;0.276;2022-10-17T03:12:03;100761.47;;;17.70;70.30
64739;BME280;51175;51.186;0.276;2022-10-17T03:12:34;100765.25;;;17.69;70.21
64739;BME280;51175;51.186;0.276;2022-10-17T03:13:04;100760.69;;;17.69;69.77
64739;BME280;51175;51.186;0.276;2022-10-17T03:13:35;100764.94;;;17.70;70.29
64739;BME280;51175;51.186;0.276;2022-10-17T03:14:05;100760.38;;;17.71;69.98
64739;BME280;51175;51.186;0.276;2022-10-17T03:14:35;100766.53;;;17.71;70.34
64739;BME280;51175;51.186;0.276;2022-10-17T03:15:06;100763.84;;;17.71;70.28
64739;BME280;51175;51.186;0.276;2022-10-17T03:15:36;100758.00;;;17.69;70.25
64739;BME280;51175;51.186;0.276;2022-10-17T03:16:07;100763.84;;;17.71;69.92
64739;BME280;51175;51.186;0.276;2022-10-17T03:16:37;100761.97;;;17.72;70.26
64739;BME280;51175;51.186;0.276;2022-10-17T03:17:08;100760.38;;;17.71;70.23
64739;BME280;51175;51.186;0.276;2022-10-17T03:17:38;100761.97;;;17.72;70.38
64739;BME280;51175;51.186;0.276;2022-10-17T03:18:08;100759.31;;;17.72;70.23
64739;BME280;51175;51.186;0.276;2022-10-17T03:18:39;100760.06;;;17.72;70.33
64739;BME280;51175;51.186;0.276;2022-10-17T03:19:09;100753.16;;;17.71;70.20
64739;BME280;51175;51.186;0.276;2022-10-17T03:19:39;100761.97;;;17.72;70.14
64739;BME280;51175;51.186;0.276;2022-10-17T03:20:10;100759.31;;;17.72;70.06
64739;BME280;51175;51.186;0.276;2022-10-17T03:20:40;100768.88;;;17.73;70.11
64739;BME280;51175;51.186;0.276;2022-10-17T03:21:10;100754.72;;;17.72;70.00
64739;BME280;51175;51.186;0.276;2022-10-17T03:21:41;100752.06;;;17.72;70.28
64739;BME280;51175;51.186;0.276;2022-10-17T03:22:11;100752.06;;;17.72;70.25
64739;BME280;51175;51.186;0.276;2022-10-17T03:22:41;100763.56;;;17.73;70.00
64739;BME280;51175;51.186;0.276;2022-10-17T03:23:12;100764.34;;;17.73;70.01
64739;BME280;51175;51.186;0.276;2022-10-17T03:23:42;100766.22;;;17.73;70.16
64739;BME280;51175;51.186;0.276;2022-10-17T03:24:13;100766.22;;;17.73;70.06
64739;BME280;51175;51.186;0.276;2022-10-17T03:24:43;100767.78;;;17.74;70.27
64739;BME280;51175;51.186;0.276;2022-10-17T03:25:13;100765.13;;;17.74;70.07
64739;BME280;51175;51.186;0.276;2022-10-17T03:25:44;100762.44;;;17.74;70.08
64739;BME280;51175;51.186;0.276;2022-10-17T03:26:14;100763.56;;;17.73;70.27
64739;BME280;51175;51.186;0.276;2022-10-17T03:26:45;100767.03;;;17.73;69.88
64739;BME280;51175;51.186;0.276;2022-10-17T03:27:15;100761.69;;;17.73;70.20
64739;BME280;51175;51.186;0.276;2022-10-17T03:27:45;100761.69;;;17.73;69.81
64739;BME280;51175;51.186;0.276;2022-10-17T03:28:16;100753.66;;;17.73;69.94
64739;BME280;51175;51.186;0.276;2022-10-17T03:28:46;100763.56;;;17.73;70.18
64739;BME280;51175;51.186;0.276;2022-10-17T03:29:16;100761.69;;;17.73;70.17
64739;BME280;51175;51.186;0.276;2022-10-17T03:29:47;100767.03;;;17.73;70.09
64739;BME280;51175;51.186;0.276;2022-10-17T03:30:17;100770.47;;;17.74;70.03
64739;BME280;51175;51.186;0.276;2022-10-17T03:30:48;100770.47;;;17.74;70.26
64739;BME280;51175;51.186;0.276;2022-10-17T03:31:18;100771.25;;;17.74;70.02
64739;BME280;51175;51.186;0.276;2022-10-17T03:31:48;100773.13;;;17.74;69.99
64739;BME280;51175;51.186;0.276;2022-10-17T03:32:19;100778.47;;;17.74;69.78